Time;durP1;ratioP1;P1;durP2;ratioP2;P2;SDS_P1;SDS_P2;PMS_P1;PMS_P2;Temp;Humidity;BMP_temperature;BMP_pressure;BME280_temperature;BME280_humidity;BME280_pressure;Samples;Min_cycle;Max_cycle;Signal;HPM_P1;HPM_P2
2023/01/09 00:00:48;;;;;;;;;;;8.30;99.90;;;;;;5073536;28;19971;-63
2023/01/09 00:03:13;;;;;;;;;;;8.20;99.90;;;;;;5076394;28;20382;-64
2023/01/09 00:05:39;;;;;;;;;;;8.20;99.90;;;;;;5077667;28;19920;-63
2023/01/09 00:08:06;;;;;;;;;;;8.20;99.90;;;;;;5078112;28;21229;-63
2023/01/09 00:10:31;;;;;;;;;;;8.10;99.90;;;;;;5069772;28;20425;-63
2023/01/09 00:12:57;;;;;;;;;;;8.10;99.90;;;;;;5075267;28;19916;-63
2023/01/09 00:15:23;;;;;;;;;;;8.00;99.90;;;;;;5075287;28;20069;-62
2023/01/09 00:17:48;;;;;;;;;;;8.00;99.90;;;;;;5080120;28;19916;-64
2023/01/09 00:20:14;;;;;;;;;;;7.90;99.90;;;;;;5078207;28;19912;-64
2023/01/09 00:22:39;;;;;;;;;;;8.00;99.90;;;;;;5074397;28;19947;-63
2023/01/09 00:25:05;;;;;;;;;;;8.00;99.90;;;;;;5076047;28;19921;-63
2023/01/09 00:27:32;;;;;;;;;;;8.00;99.90;;;;;;5067160;28;19921;-63
2023/01/09 00:29:57;;;;;;;;;;;7.90;99.90;;;;;;5067314;28;19909;-64
2023/01/09 00:32:23;;;;;;;;;;;7.90;99.90;;;;;;5069968;28;19912;-64
2023/01/09 00:34:48;;;;;;;;;;;7.90;99.90;;;;;;5078955;28;19923;-64
2023/01/09 00:37:14;;;;;;;;;;;7.90;99.90;;;;;;5068500;28;19913;-64
2023/01/09 00:39:40;;;;;;;;;;;7.90;99.90;;;;;;5075680;28;19909;-64
2023/01/09 00:42:06;;;;;;;;;;;7.80;99.90;;;;;;5073443;28;19923;-64
2023/01/09 00:44:34;;;;;;;;;;;7.80;99.90;;;;;;5072101;28;20338;-63
2023/01/09 00:47:01;;;;;;;;;;;7.80;99.90;;;;;;5071879;28;19908;-63
2023/01/09 00:49:31;;;;;;;;;;;7.80;99.90;;;;;;5068120;28;19919;-64
2023/01/09 00:51:57;;;;;;;;;;;7.90;99.90;;;;;;5068108;28;19908;-63
2023/01/09 00:54:22;;;;;;;;;;;7.80;99.90;;;;;;5072947;28;19951;-65
2023/01/09 00:56:48;;;;;;;;;;;7.80;99.90;;;;;;5071000;28;19979;-64
2023/01/09 00:59:14;;;;;;;;;;;7.80;99.90;;;;;;5071991;28;19917;-65
2023/01/09 01:01:39;;;;;;;;;;;7.80;99.90;;;;;;5071550;28;19963;-63
2023/01/09 01:07:37;;;;;;;;;;;7.80;99.90;;;;;;5074229;28;19955;-63
2023/01/09 01:09:34;;;;;;;;;;;7.70;99.90;;;;;;5072839;28;19955;-63
2023/01/09 01:12:00;;;;;;;;;;;7.70;99.90;;;;;;5067939;28;20366;-67
2023/01/09 01:14:26;;;;;;;;;;;7.70;99.90;;;;;;5072050;28;19974;-63
2023/01/09 01:16:51;;;;;;;;;;;7.60;99.90;;;;;;5072359;28;19917;-64
2023/01/09 01:19:17;;;;;;;;;;;7.70;99.90;;;;;;5070430;28;20340;-63
2023/01/09 01:21:42;;;;;;;;;;;7.60;99.90;;;;;;5068902;28;20349;-63
2023/01/09 01:24:08;;;;;;;;;;;7.70;99.90;;;;;;5064173;28;19920;-61
2023/01/09 01:26:33;;;;;;;;;;;7.60;99.90;;;;;;5067620;28;20416;-61
2023/01/09 01:28:59;;;;;;;;;;;7.50;99.90;;;;;;5071607;28;20392;-61
2023/01/09 01:31:24;;;;;;;;;;;7.50;99.90;;;;;;5068339;28;20421;-62
2023/01/09 01:33:50;;;;;;;;;;;7.40;99.90;;;;;;5068756;28;19920;-62
2023/01/09 01:36:16;;;;;;;;;;;7.40;99.90;;;;;;5072534;28;19917;-62
2023/01/09 01:38:41;;;;;;;;;;;7.40;99.90;;;;;;5078362;28;19979;-65
2023/01/09 01:41:07;;;;;;;;;;;7.40;99.90;;;;;;5069742;28;19935;-62
2023/01/09 01:43:48;;;;;;;;;;;7.40;99.90;;;;;;5075484;28;19912;-62
2023/01/09 01:46:15;;;;;;;;;;;7.30;99.90;;;;;;5068642;28;20353;-61
2023/01/09 01:48:40;;;;;;;;;;;7.30;99.90;;;;;;5069735;28;19921;-61
2023/01/09 01:51:06;;;;;;;;;;;7.20;99.90;;;;;;5067100;28;19913;-62
2023/01/09 01:53:36;;;;;;;;;;;7.30;99.90;;;;;;5066531;28;20369;-62
2023/01/09 01:56:05;;;;;;;;;;;7.20;99.90;;;;;;5064255;28;19923;-62
2023/01/09 01:58:32;;;;;;;;;;;7.20;99.90;;;;;;5065406;28;19989;-62
2023/01/09 02:00:57;;;;;;;;;;;7.10;99.90;;;;;;5067712;28;19923;-62
2023/01/09 02:03:26;;;;;;;;;;;7.10;99.90;;;;;;5062218;28;19913;-62
2023/01/09 02:05:51;;;;;;;;;;;7.10;99.90;;;;;;5066352;28;19987;-62
2023/01/09 02:08:17;;;;;;;;;;;7.10;99.90;;;;;;5063971;28;20757;-61
2023/01/09 02:10:43;;;;;;;;;;;7.10;99.90;;;;;;5065503;28;19913;-62
2023/01/09 02:13:09;;;;;;;;;;;7.10;99.90;;;;;;5068784;28;20016;-61
2023/01/09 02:15:41;;;;;;;;;;;7.10;99.90;;;;;;5068188;28;20048;-61
2023/01/09 02:18:15;;;;;;;;;;;7.20;99.90;;;;;;5094857;22;19940;-65
2023/01/09 02:20:51;;;;;;;;;;;7.20;99.90;;;;;;5082791;28;19928;-65
2023/01/09 02:23:35;;;;;;;;;;;7.20;99.90;;;;;;5089517;28;19912;-66
2023/01/09 02:26:01;;;;;;;;;;;7.30;99.90;;;;;;5087050;28;20052;-64
2023/01/09 02:28:50;;;;;;;;;;;7.30;99.90;;;;;;5089920;28;20007;-65
2023/01/09 02:31:19;;;;;;;;;;;7.30;99.90;;;;;;5086960;28;20441;-66
2023/01/09 02:34:01;;;;;;;;;;;7.20;99.90;;;;;;5085753;28;19912;-64
2023/01/09 02:36:29;;;;;;;;;;;7.10;99.90;;;;;;5083606;28;19920;-64
2023/01/09 02:39:13;;;;;;;;;;;7.10;99.90;;;;;;5091677;28;19908;-64
2023/01/09 02:41:47;;;;;;;;;;;7.10;99.90;;;;;;5089264;28;19919;-64
2023/01/09 02:44:15;;;;;;;;;;;7.00;99.90;;;;;;5086703;28;19966;-66
2023/01/09 02:46:41;;;;;;;;;;;7.00;99.90;;;;;;5084219;28;19923;-67
2023/01/09 02:49:07;;;;;;;;;;;7.00;99.90;;;;;;5090632;28;19916;-65
2023/01/09 02:51:39;;;;;;;;;;;7.00;99.90;;;;;;5087414;28;19942;-63
2023/01/09 02:54:14;;;;;;;;;;;7.00;99.90;;;;;;5089238;28;20271;-66
2023/01/09 02:56:54;;;;;;;;;;;6.90;99.90;;;;;;5081675;28;19916;-66
2023/01/09 02:59:31;;;;;;;;;;;6.90;99.90;;;;;;5088894;28;19915;-65
2023/01/09 03:02:06;;;;;;;;;;;6.90;99.90;;;;;;5081625;28;19923;-66
2023/01/09 03:04:32;;;;;;;;;;;7.00;99.90;;;;;;5089689;28;19912;-66
2023/01/09 03:07:06;;;;;;;;;;;7.20;99.90;;;;;;5084703;28;19920;-66
2023/01/09 03:09:33;;;;;;;;;;;7.30;99.90;;;;;;5091107;28;19912;-65
2023/01/09 03:12:06;;;;;;;;;;;7.30;99.90;;;;;;5087562;28;19965;-66
2023/01/09 03:14:32;;;;;;;;;;;7.40;99.90;;;;;;5088700;28;19923;-66
2023/01/09 03:17:00;;;;;;;;;;;7.30;99.90;;;;;;5085864;28;20595;-64
2023/01/09 03:19:28;;;;;;;;;;;7.40;99.90;;;;;;5090297;28;19927;-64
2023/01/09 03:21:54;;;;;;;;;;;7.40;99.90;;;;;;5087455;28;19916;-64
2023/01/09 03:24:20;;;;;;;;;;;7.30;99.90;;;;;;5089071;28;19912;-64
2023/01/09 03:26:45;;;;;;;;;;;7.20;99.90;;;;;;5084972;28;19912;-65
2023/01/09 03:29:11;;;;;;;;;;;7.20;99.90;;;;;;5090675;28;19916;-65
2023/01/09 03:31:36;;;;;;;;;;;7.10;99.90;;;;;;5087217;28;20482;-66
2023/01/09 03:34:02;;;;;;;;;;;7.10;99.90;;;;;;5079237;28;19919;-65
2023/01/09 03:36:27;;;;;;;;;;;7.00;99.90;;;;;;5087056;28;19916;-65
2023/01/09 03:38:53;;;;;;;;;;;6.90;99.90;;;;;;5080966;28;19958;-65
2023/01/09 03:41:18;;;;;;;;;;;6.90;99.90;;;;;;5088221;28;19920;-65
2023/01/09 03:43:44;;;;;;;;;;;6.80;99.90;;;;;;5089520;28;20046;-65
2023/01/09 03:46:09;;;;;;;;;;;6.80;99.90;;;;;;5088254;28;19947;-64
2023/01/09 03:48:35;;;;;;;;;;;6.70;99.90;;;;;;5087813;28;20304;-66
2023/01/09 03:51:00;;;;;;;;;;;6.80;99.90;;;;;;5083012;28;19916;-66
2023/01/09 03:53:27;;;;;;;;;;;6.70;99.90;;;;;;5086964;28;19916;-66
2023/01/09 03:55:53;;;;;;;;;;;6.70;99.90;;;;;;5088911;28;19925;-67
2023/01/09 03:58:19;;;;;;;;;;;6.70;99.90;;;;;;5088515;28;20014;-65
2023/01/09 04:00:47;;;;;;;;;;;6.60;99.90;;;;;;5086434;28;20376;-66
2023/01/09 04:03:13;;;;;;;;;;;6.50;99.90;;;;;;5086329;28;19965;-66
2023/01/09 04:05:38;;;;;;;;;;;6.30;99.90;;;;;;5089379;28;19916;-65
2023/01/09 04:08:04;;;;;;;;;;;6.30;99.90;;;;;;5087018;28;19923;-66
2023/01/09 04:10:29;;;;;;;;;;;6.30;99.90;;;;;;5090313;28;19938;-66
2023/01/09 04:12:55;;;;;;;;;;;6.30;99.90;;;;;;5079069;28;19913;-65
2023/01/09 04:15:21;;;;;;;;;;;6.20;99.90;;;;;;5091687;28;19919;-65
2023/01/09 04:17:46;;;;;;;;;;;6.20;99.90;;;;;;5086287;28;20000;-65
2023/01/09 04:20:11;;;;;;;;;;;5.90;99.90;;;;;;5089783;28;19975;-65
2023/01/09 04:22:37;;;;;;;;;;;6.00;99.90;;;;;;5088969;28;19912;-65
2023/01/09 04:25:03;;;;;;;;;;;5.70;99.90;;;;;;5089399;28;20376;-66
2023/01/09 04:27:28;;;;;;;;;;;5.50;99.90;;;;;;5088530;28;19912;-66
2023/01/09 04:29:54;;;;;;;;;;;5.30;99.90;;;;;;5089282;28;19916;-65
2023/01/09 04:32:19;;;;;;;;;;;5.20;99.90;;;;;;5085524;28;19966;-65
2023/01/09 04:34:44;;;;;;;;;;;5.20;99.90;;;;;;5092813;28;19965;-65
2023/01/09 04:37:10;;;;;;;;;;;5.20;99.90;;;;;;5088811;28;19923;-64
2023/01/09 04:39:36;;;;;;;;;;;5.20;99.90;;;;;;5084570;28;20400;-65
2023/01/09 04:42:01;;;;;;;;;;;5.20;99.90;;;;;;5089386;28;19938;-65
2023/01/09 04:44:27;;;;;;;;;;;5.40;99.90;;;;;;5093515;28;19912;-65
2023/01/09 04:46:54;;;;;;;;;;;5.50;99.90;;;;;;5091277;28;19912;-65
2023/01/09 04:49:19;;;;;;;;;;;5.60;99.90;;;;;;5089455;28;19912;-65
2023/01/09 04:51:45;;;;;;;;;;;5.70;99.90;;;;;;5089451;28;20752;-65
2023/01/09 04:54:10;;;;;;;;;;;5.80;99.90;;;;;;5090654;28;19916;-67
2023/01/09 04:56:36;;;;;;;;;;;5.90;99.90;;;;;;5085664;28;19976;-65
2023/01/09 04:59:02;;;;;;;;;;;6.20;99.90;;;;;;5094008;28;20388;-66
2023/01/09 05:01:28;;;;;;;;;;;6.40;99.90;;;;;;5091902;28;19919;-66
2023/01/09 05:03:53;;;;;;;;;;;6.50;99.90;;;;;;5098543;28;19912;-66
2023/01/09 05:06:18;;;;;;;;;;;6.50;99.90;;;;;;5081968;28;19950;-65
2023/01/09 05:08:44;;;;;;;;;;;6.60;99.90;;;;;;5092160;28;19968;-65
2023/01/09 05:11:09;;;;;;;;;;;6.60;99.90;;;;;;5089614;28;19972;-66
2023/01/09 05:13:35;;;;;;;;;;;6.70;99.90;;;;;;5089214;28;19987;-64
2023/01/09 05:16:00;;;;;;;;;;;6.70;99.90;;;;;;5087484;28;19924;-65
2023/01/09 05:18:26;;;;;;;;;;;6.70;99.90;;;;;;5089689;28;19985;-66
2023/01/09 05:20:51;;;;;;;;;;;6.70;99.90;;;;;;5089592;28;19912;-66
2023/01/09 05:23:17;;;;;;;;;;;6.70;99.90;;;;;;5090379;28;20003;-66
2023/01/09 05:25:42;;;;;;;;;;;6.70;99.90;;;;;;5083814;28;19947;-65
2023/01/09 05:28:08;;;;;;;;;;;6.70;99.90;;;;;;5090446;28;19916;-64
2023/01/09 05:30:33;;;;;;;;;;;6.70;99.90;;;;;;5088907;28;20350;-65
2023/01/09 05:32:58;;;;;;;;;;;6.70;99.90;;;;;;5087212;28;19912;-65
2023/01/09 05:35:24;;;;;;;;;;;6.80;99.90;;;;;;5076029;28;19924;-64
2023/01/09 05:37:49;;;;;;;;;;;6.70;99.90;;;;;;5089933;28;20378;-65
2023/01/09 05:40:15;;;;;;;;;;;6.80;99.90;;;;;;5086882;28;19960;-64
2023/01/09 05:42:41;;;;;;;;;;;6.80;99.90;;;;;;5092966;28;19912;-64
2023/01/09 05:45:07;;;;;;;;;;;6.80;99.90;;;;;;5090323;28;19964;-64
2023/01/09 05:47:33;;;;;;;;;;;6.80;99.90;;;;;;5090092;28;19912;-64
2023/01/09 05:49:59;;;;;;;;;;;6.90;99.90;;;;;;5092359;28;19998;-66
2023/01/09 05:52:24;;;;;;;;;;;6.90;99.90;;;;;;5087946;28;19919;-67
2023/01/09 05:54:50;;;;;;;;;;;6.80;99.90;;;;;;5089941;28;19919;-65
2023/01/09 05:57:15;;;;;;;;;;;6.90;99.90;;;;;;5084706;28;20331;-62
2023/01/09 05:59:41;;;;;;;;;;;6.80;99.90;;;;;;5086652;28;19916;-62
2023/01/09 06:02:06;;;;;;;;;;;6.90;99.90;;;;;;5090499;28;19918;-59
2023/01/09 06:04:32;;;;;;;;;;;7.00;99.90;;;;;;5085428;28;19920;-63
2023/01/09 06:06:57;;;;;;;;;;;7.10;99.90;;;;;;5089344;28;20309;-61
2023/01/09 06:09:23;;;;;;;;;;;7.10;99.90;;;;;;5086900;28;19972;-60
2023/01/09 06:11:48;;;;;;;;;;;7.20;99.90;;;;;;5090517;28;19919;-59
2023/01/09 06:14:14;;;;;;;;;;;7.30;99.90;;;;;;5082584;28;19962;-61
2023/01/09 06:16:39;;;;;;;;;;;7.30;99.90;;;;;;5082795;28;20024;-58
2023/01/09 06:19:05;;;;;;;;;;;7.40;99.90;;;;;;5083779;28;19927;-61
2023/01/09 06:21:31;;;;;;;;;;;7.40;99.90;;;;;;5087826;28;20002;-57
2023/01/09 06:23:56;;;;;;;;;;;7.40;99.90;;;;;;5085227;28;19917;-57
2023/01/09 06:26:22;;;;;;;;;;;7.50;99.90;;;;;;5089209;28;19976;-58
2023/01/09 06:28:47;;;;;;;;;;;7.50;99.90;;;;;;5085638;28;19946;-55
2023/01/09 06:31:13;;;;;;;;;;;7.60;99.90;;;;;;5087530;28;19965;-52
2023/01/09 06:33:39;;;;;;;;;;;7.60;99.90;;;;;;5086392;28;19986;-56
2023/01/09 06:36:04;;;;;;;;;;;7.60;99.90;;;;;;5091115;28;19912;-57
2023/01/09 06:38:29;;;;;;;;;;;7.50;99.90;;;;;;5083909;28;19912;-54
2023/01/09 06:40:55;;;;;;;;;;;7.50;99.90;;;;;;5092556;28;20487;-57
2023/01/09 06:43:20;;;;;;;;;;;7.50;99.90;;;;;;5094047;28;19965;-59
2023/01/09 06:45:47;;;;;;;;;;;7.60;99.90;;;;;;5090616;28;20284;-57
2023/01/09 06:48:12;;;;;;;;;;;7.60;99.90;;;;;;5092103;28;20361;-53
2023/01/09 06:50:38;;;;;;;;;;;7.60;99.90;;;;;;5090952;28;19916;-56
2023/01/09 06:53:03;;;;;;;;;;;7.60;99.90;;;;;;5090448;28;19912;-58
2023/01/09 06:55:29;;;;;;;;;;;7.60;99.90;;;;;;5089424;28;19931;-59
2023/01/09 06:57:54;;;;;;;;;;;7.60;99.90;;;;;;5090803;28;19916;-58
2023/01/09 07:00:20;;;;;;;;;;;7.60;99.90;;;;;;5091896;28;19908;-58
2023/01/09 07:02:45;;;;;;;;;;;7.70;99.90;;;;;;5091720;28;20263;-58
2023/01/09 07:05:11;;;;;;;;;;;7.70;99.90;;;;;;5090670;28;19919;-61
2023/01/09 07:07:40;;;;;;;;;;;7.70;99.90;;;;;;5090119;28;19908;-58
2023/01/09 07:10:06;;;;;;;;;;;7.70;99.90;;;;;;5092210;28;20000;-58
2023/01/09 07:12:32;;;;;;;;;;;7.80;99.90;;;;;;5091835;28;19912;-57
2023/01/09 07:14:57;;;;;;;;;;;7.80;99.90;;;;;;5090161;28;19988;-58
2023/01/09 07:17:22;;;;;;;;;;;7.80;99.90;;;;;;5092066;28;19915;-59
2023/01/09 07:19:48;;;;;;;;;;;7.70;99.90;;;;;;5091827;28;20343;-59
2023/01/09 07:22:16;;;;;;;;;;;7.70;99.90;;;;;;5092106;28;19916;-58
2023/01/09 07:24:43;;;;;;;;;;;7.60;99.90;;;;;;5084980;28;19916;-60
2023/01/09 07:27:09;;;;;;;;;;;7.50;99.90;;;;;;5091900;28;19908;-60
2023/01/09 07:29:34;;;;;;;;;;;7.50;99.90;;;;;;5092115;28;20397;-57
2023/01/09 07:32:00;;;;;;;;;;;7.60;99.90;;;;;;5091910;28;20404;-56
2023/01/09 07:34:26;;;;;;;;;;;7.50;99.90;;;;;;5090578;28;19989;-58
2023/01/09 07:36:51;;;;;;;;;;;7.50;99.90;;;;;;5089498;28;19957;-56
2023/01/09 07:39:17;;;;;;;;;;;7.60;99.90;;;;;;5089083;28;19947;-58
2023/01/09 07:41:42;;;;;;;;;;;7.60;99.90;;;;;;5094359;28;19912;-59
2023/01/09 07:44:08;;;;;;;;;;;7.60;99.90;;;;;;5094280;28;19908;-60
2023/01/09 07:46:33;;;;;;;;;;;7.60;99.90;;;;;;5095854;28;19908;-58
2023/01/09 07:48:58;;;;;;;;;;;7.60;99.90;;;;;;5095848;28;19961;-56
2023/01/09 07:51:24;;;;;;;;;;;7.60;99.90;;;;;;5095541;28;19914;-60
2023/01/09 07:53:49;;;;;;;;;;;7.60;99.90;;;;;;5091947;28;19912;-59
2023/01/09 07:56:15;;;;;;;;;;;7.60;99.90;;;;;;5094972;28;19981;-58
2023/01/09 07:58:40;;;;;;;;;;;7.60;99.90;;;;;;5095005;28;19977;-59
2023/01/09 08:01:06;;;;;;;;;;;7.60;99.90;;;;;;5095085;28;19915;-61
2023/01/09 08:03:32;;;;;;;;;;;7.60;99.90;;;;;;5095029;28;19954;-60
2023/01/09 08:05:58;;;;;;;;;;;7.60;99.90;;;;;;5094239;28;19909;-60
2023/01/09 08:08:23;;;;;;;;;;;7.60;99.90;;;;;;5092393;28;19912;-58
2023/01/09 08:10:49;;;;;;;;;;;7.60;99.90;;;;;;5094670;28;19920;-59
2023/01/09 08:13:14;;;;;;;;;;;7.70;99.90;;;;;;5094999;28;20385;-59
2023/01/09 08:15:40;;;;;;;;;;;7.70;99.90;;;;;;5093229;28;19919;-61
2023/01/09 08:18:05;;;;;;;;;;;7.70;99.90;;;;;;5094596;28;19916;-57
2023/01/09 08:20:30;;;;;;;;;;;7.70;99.90;;;;;;5104247;22;20240;-56
2023/01/09 08:22:56;;;;;;;;;;;7.70;99.90;;;;;;5065827;28;19919;-56
2023/01/09 08:25:22;;;;;;;;;;;7.70;99.90;;;;;;5073922;28;19909;-54
2023/01/09 08:27:47;;;;;;;;;;;7.70;99.90;;;;;;5074671;28;19916;-56
2023/01/09 08:30:13;;;;;;;;;;;7.80;99.90;;;;;;5085662;28;19908;-56
2023/01/09 08:32:40;;;;;;;;;;;7.80;99.90;;;;;;5093817;28;19908;-55
2023/01/09 08:35:05;;;;;;;;;;;7.90;99.90;;;;;;5093762;28;19916;-57
2023/01/09 08:37:31;;;;;;;;;;;8.00;99.90;;;;;;5090341;28;19935;-55
2023/01/09 08:39:56;;;;;;;;;;;8.10;99.90;;;;;;5093777;28;19908;-52
2023/01/09 08:47:50;;;;;;;;;;;8.20;99.90;;;;;;5094005;28;19915;-54
2023/01/09 08:50:15;;;;;;;;;;;8.30;99.90;;;;;;5093423;28;19915;-54
2023/01/09 08:52:41;;;;;;;;;;;8.30;99.90;;;;;;5087424;28;19948;-53
2023/01/09 08:55:07;;;;;;;;;;;8.30;99.90;;;;;;5093210;28;19912;-54
2023/01/09 08:57:32;;;;;;;;;;;8.30;99.90;;;;;;5093538;28;19969;-56
2023/01/09 08:59:58;;;;;;;;;;;8.30;99.90;;;;;;5093263;28;19999;-56
2023/01/09 09:02:23;;;;;;;;;;;8.40;99.90;;;;;;5093491;28;19915;-54
2023/01/09 09:04:51;;;;;;;;;;;8.40;99.90;;;;;;5092960;28;19912;-55
2023/01/09 09:07:25;;;;;;;;;;;8.30;99.90;;;;;;5086450;28;19912;-55
2023/01/09 09:09:53;;;;;;;;;;;8.30;99.90;;;;;;5093454;28;20304;-56
2023/01/09 09:12:19;;;;;;;;;;;8.30;99.90;;;;;;5093161;28;20392;-56
2023/01/09 09:17:28;;;;;;;;;;;8.40;99.90;;;;;;5093306;28;19915;-56
2023/01/09 09:19:53;;;;;;;;;;;8.40;99.90;;;;;;5093414;28;19908;-50
2023/01/09 09:22:19;;;;;;;;;;;8.40;99.90;;;;;;5090063;28;19999;-56
2023/01/09 09:24:44;;;;;;;;;;;8.40;99.90;;;;;;5092453;28;19950;-54
2023/01/09 09:27:10;;;;;;;;;;;8.50;99.90;;;;;;5092670;28;19919;-51
2023/01/09 09:29:35;;;;;;;;;;;8.50;99.90;;;;;;5092431;28;20392;-52
2023/01/09 09:32:01;;;;;;;;;;;8.50;99.90;;;;;;5092715;28;20030;-55
2023/01/09 09:34:26;;;;;;;;;;;8.50;99.90;;;;;;5092039;28;19908;-52
2023/01/09 09:36:52;;;;;;;;;;;8.50;99.90;;;;;;5088584;28;19916;-56
2023/01/09 09:39:17;;;;;;;;;;;8.50;99.90;;;;;;5092419;28;19908;-65
2023/01/09 09:45:08;;;;;;;;;;;8.60;99.90;;;;;;5068570;28;19997;-57
2023/01/09 09:47:42;;;;;;;;;;;8.60;99.90;;;;;;5073051;28;19993;-56
2023/01/09 09:50:26;;;;;;;;;;;8.70;99.90;;;;;;5075324;28;20004;-52
2023/01/09 09:53:02;;;;;;;;;;;8.70;99.90;;;;;;5069512;28;20367;-56
2023/01/09 09:55:34;;;;;;;;;;;8.70;99.90;;;;;;5072623;28;20295;-57
2023/01/09 09:58:05;;;;;;;;;;;8.80;99.90;;;;;;5072422;28;19964;-53
2023/01/09 10:00:31;;;;;;;;;;;8.80;99.90;;;;;;5072587;28;20007;-54
2023/01/09 10:02:56;;;;;;;;;;;8.80;99.90;;;;;;5087516;28;19964;-56
2023/01/09 10:05:25;;;;;;;;;;;8.80;99.90;;;;;;5084190;28;19913;-55
2023/01/09 10:07:51;;;;;;;;;;;8.90;99.90;;;;;;5091777;28;19908;-55
2023/01/09 10:10:32;;;;;;;;;;;8.90;99.90;;;;;;5091802;28;20428;-53
2023/01/09 10:12:59;;;;;;;;;;;8.90;99.90;;;;;;5091530;28;19908;-56
2023/01/09 10:15:37;;;;;;;;;;;8.90;99.90;;;;;;5091283;28;20406;-52
2023/01/09 10:18:21;;;;;;;;;;;9.00;99.90;;;;;;5091698;28;19908;-56
2023/01/09 10:20:53;;;;;;;;;;;9.00;99.90;;;;;;5077132;28;19920;-56
2023/01/09 10:23:19;;;;;;;;;;;8.90;99.90;;;;;;5091237;28;19969;-56
2023/01/09 10:26:05;;;;;;;;;;;8.90;99.90;;;;;;5090122;28;19999;-54
2023/01/09 10:28:40;;;;;;;;;;;8.90;99.90;;;;;;5090841;28;20411;-54
2023/01/09 10:31:14;;;;;;;;;;;8.90;99.90;;;;;;5091478;28;20241;-55
2023/01/09 10:33:51;;;;;;;;;;;8.90;99.90;;;;;;5088449;28;20010;-56
2023/01/09 10:36:19;;;;;;;;;;;8.90;99.90;;;;;;5070593;28;19920;-55
2023/01/09 10:38:47;;;;;;;;;;;8.90;99.90;;;;;;5070623;28;19916;-56
2023/01/09 10:41:39;;;;;;;;;;;8.80;99.90;;;;;;5071912;28;19915;-56
2023/01/09 10:44:04;;;;;;;;;;;8.80;99.90;;;;;;5068519;28;20411;-56
2023/01/09 10:46:34;;;;;;;;;;;8.80;99.90;;;;;;5071880;28;19958;-55
2023/01/09 10:49:02;;;;;;;;;;;8.80;99.90;;;;;;5071533;28;19920;-55
2023/01/09 10:51:31;;;;;;;;;;;8.90;99.90;;;;;;5091099;28;20254;-52
2023/01/09 10:53:56;;;;;;;;;;;9.00;99.90;;;;;;5090813;28;19908;-54
2023/01/09 10:56:22;;;;;;;;;;;9.10;99.90;;;;;;5091178;28;19958;-55
2023/01/09 10:58:47;;;;;;;;;;;9.10;99.90;;;;;;5090871;28;19938;-56
2023/01/09 11:01:13;;;;;;;;;;;9.20;99.90;;;;;;5090864;28;19908;-57
2023/01/09 11:03:39;;;;;;;;;;;9.20;99.90;;;;;;5084041;28;20058;-55
2023/01/09 11:06:14;;;;;;;;;;;9.20;99.90;;;;;;5090087;28;20317;-57
2023/01/09 11:08:41;;;;;;;;;;;9.20;99.90;;;;;;5091130;28;19908;-56
2023/01/09 11:11:07;;;;;;;;;;;9.20;99.90;;;;;;5090622;28;19908;-57
2023/01/09 11:13:35;;;;;;;;;;;9.20;99.90;;;;;;5090948;28;20002;-56
2023/01/09 11:16:00;;;;;;;;;;;9.20;99.90;;;;;;5094687;28;20365;-54
2023/01/09 11:18:26;;;;;;;;;;;9.20;99.90;;;;;;5091968;28;19916;-55
2023/01/09 11:20:51;;;;;;;;;;;9.20;99.90;;;;;;5077173;28;19970;-56
2023/01/09 11:23:23;;;;;;;;;;;9.20;99.90;;;;;;5076038;28;20400;-52
2023/01/09 11:25:52;;;;;;;;;;;9.20;99.90;;;;;;5075178;28;20011;-53
2023/01/09 11:28:18;;;;;;;;;;;9.20;99.90;;;;;;5075650;28;19909;-57
2023/01/09 11:30:59;;;;;;;;;;;9.20;99.90;;;;;;5075647;28;20011;-56
2023/01/09 11:33:27;;;;;;;;;;;9.20;99.90;;;;;;5074484;28;19912;-57
2023/01/09 11:35:55;;;;;;;;;;;9.30;99.90;;;;;;5069520;28;20709;-57
2023/01/09 11:38:21;;;;;;;;;;;9.20;99.90;;;;;;5078673;28;19908;-56
2023/01/09 11:40:46;;;;;;;;;;;9.20;99.90;;;;;;5077604;28;19920;-54
2023/01/09 11:43:12;;;;;;;;;;;9.20;99.90;;;;;;5094448;28;19914;-56
2023/01/09 11:45:41;;;;;;;;;;;9.20;99.90;;;;;;5093139;28;20267;-55
2023/01/09 11:48:15;;;;;;;;;;;9.20;99.90;;;;;;5091246;28;19951;-55
2023/01/09 11:50:51;;;;;;;;;;;9.20;99.90;;;;;;5094827;28;19912;-57
2023/01/09 11:53:18;;;;;;;;;;;9.10;99.90;;;;;;5095006;28;19912;-53
2023/01/09 11:55:44;;;;;;;;;;;9.20;99.90;;;;;;5093197;28;19912;-55
2023/01/09 11:58:13;;;;;;;;;;;9.10;99.90;;;;;;5094565;28;20018;-52
2023/01/09 12:00:46;;;;;;;;;;;9.00;99.90;;;;;;5078051;28;19916;-55
2023/01/09 12:03:23;;;;;;;;;;;9.00;99.90;;;;;;5084279;28;20309;-54
2023/01/09 12:05:55;;;;;;;;;;;8.90;99.90;;;;;;5093260;28;19994;-56
2023/01/09 12:08:20;;;;;;;;;;;8.90;99.90;;;;;;5094203;28;19916;-55
2023/01/09 12:10:55;;;;;;;;;;;8.90;99.90;;;;;;5094377;28;19908;-55
2023/01/09 12:13:29;;;;;;;;;;;9.00;99.90;;;;;;5093950;28;19912;-55
2023/01/09 12:15:57;;;;;;;;;;;8.90;99.90;;;;;;5092945;28;19916;-54
2023/01/09 12:18:34;;;;;;;;;;;8.90;99.90;;;;;;5080876;28;19919;-53
2023/01/09 12:21:03;;;;;;;;;;;8.90;99.90;;;;;;5085945;28;20297;-55
2023/01/09 12:23:28;;;;;;;;;;;8.90;99.90;;;;;;5092630;28;19956;-55
2023/01/09 12:26:05;;;;;;;;;;;8.90;99.90;;;;;;5092171;28;19908;-55
2023/01/09 12:28:36;;;;;;;;;;;9.00;99.90;;;;;;5094088;28;20010;-52
2023/01/09 12:31:14;;;;;;;;;;;9.20;99.90;;;;;;5093713;28;19912;-53
2023/01/09 12:33:58;;;;;;;;;;;9.20;99.90;;;;;;5090433;28;20404;-53
2023/01/09 12:36:29;;;;;;;;;;;9.20;99.90;;;;;;5092342;28;19916;-53
2023/01/09 12:39:03;;;;;;;;;;;9.20;99.90;;;;;;5093655;28;20026;-54
2023/01/09 12:41:29;;;;;;;;;;;9.30;99.90;;;;;;5093534;28;20003;-56
2023/01/09 12:44:13;;;;;;;;;;;9.10;99.90;;;;;;5093380;28;19943;-56
2023/01/09 12:46:50;;;;;;;;;;;9.00;99.90;;;;;;5085689;28;19909;-56
2023/01/09 12:49:28;;;;;;;;;;;8.90;99.90;;;;;;5093265;28;19916;-56
2023/01/09 12:52:04;;;;;;;;;;;8.80;99.90;;;;;;5093234;28;19940;-54
2023/01/09 12:54:53;;;;;;;;;;;8.80;99.90;;;;;;5092920;28;19914;-52
2023/01/09 12:57:21;;;;;;;;;;;8.90;99.90;;;;;;5092288;28;19912;-55
2023/01/09 12:59:51;;;;;;;;;;;9.00;99.90;;;;;;5067328;28;19913;-56
2023/01/09 13:02:26;;;;;;;;;;;9.00;99.90;;;;;;5079330;28;19916;-55
2023/01/09 13:05:14;;;;;;;;;;;9.00;99.90;;;;;;5073186;28;19920;-52
2023/01/09 13:07:52;;;;;;;;;;;8.90;99.90;;;;;;5073602;28;20378;-55
2023/01/09 13:10:22;;;;;;;;;;;8.90;99.90;;;;;;5073461;28;20278;-57
2023/01/09 13:12:49;;;;;;;;;;;8.90;99.90;;;;;;5073659;28;20269;-56
2023/01/09 13:15:33;;;;;;;;;;;8.90;99.90;;;;;;5071763;28;20378;-56
2023/01/09 13:18:03;;;;;;;;;;;8.90;99.90;;;;;;5073557;28;20008;-57
2023/01/09 13:20:35;;;;;;;;;;;9.00;99.90;;;;;;5067002;28;19977;-54
2023/01/09 13:23:01;;;;;;;;;;;9.10;99.90;;;;;;5067502;28;19912;-57
2023/01/09 13:25:44;;;;;;;;;;;9.10;99.90;;;;;;5069917;28;19927;-55
2023/01/09 13:28:15;;;;;;;;;;;9.00;99.90;;;;;;5059195;28;19920;-55
2023/01/09 13:30:46;;;;;;;;;;;8.90;99.90;;;;;;5069307;28;20381;-56
2023/01/09 13:33:12;;;;;;;;;;;9.00;99.90;;;;;;5064433;28;19974;-55
2023/01/09 13:35:51;;;;;;;;;;;9.00;99.90;;;;;;5064138;28;19964;-55
2023/01/09 13:38:18;;;;;;;;;;;9.10;99.90;;;;;;5070304;28;19916;-55
2023/01/09 13:40:43;;;;;;;;;;;9.10;99.90;;;;;;5068062;28;20042;-57
2023/01/09 13:43:09;;;;;;;;;;;9.10;99.90;;;;;;5064449;28;19999;-56
2023/01/09 13:45:36;;;;;;;;;;;9.20;99.90;;;;;;5062598;28;20329;-58
2023/01/09 13:48:04;;;;;;;;;;;9.20;99.90;;;;;;5073797;28;19912;-58
2023/01/09 13:50:29;;;;;;;;;;;9.10;99.90;;;;;;5066525;28;19928;-53
2023/01/09 13:52:55;;;;;;;;;;;9.00;99.90;;;;;;5072187;28;19924;-55
2023/01/09 13:55:22;;;;;;;;;;;9.10;99.90;;;;;;5070696;28;19931;-55
2023/01/09 13:58:13;;;;;;;;;;;9.00;99.90;;;;;;5066619;28;19913;-57
2023/01/09 14:00:40;;;;;;;;;;;9.00;99.90;;;;;;5066044;28;20328;-55
2023/01/09 14:03:16;;;;;;;;;;;9.00;99.90;;;;;;5065851;28;19921;-56
2023/01/09 14:05:42;;;;;;;;;;;9.00;99.90;;;;;;5059886;28;20653;-53
2023/01/09 14:08:12;;;;;;;;;;;8.90;99.90;;;;;;5066555;28;19916;-55
2023/01/09 14:10:43;;;;;;;;;;;8.80;99.90;;;;;;5067297;28;19966;-52
2023/01/09 14:13:29;;;;;;;;;;;8.80;99.90;;;;;;5071953;28;19911;-54
2023/01/09 14:16:05;;;;;;;;;;;8.90;99.90;;;;;;5064672;28;19916;-53
2023/01/09 14:18:35;;;;;;;;;;;8.90;99.90;;;;;;5068225;28;19912;-52
2023/01/09 14:21:02;;;;;;;;;;;8.80;99.90;;;;;;5073017;23;19928;-61
2023/01/09 14:23:48;;;;;;;;;;;8.80;99.90;;;;;;5046349;28;20007;-61
2023/01/09 14:26:34;;;;;;;;;;;8.80;99.90;;;;;;5048636;28;20386;-61
2023/01/09 14:29:36;;;;;;;;;;;8.70;99.90;;;;;;5043469;28;20421;-61
2023/01/09 14:32:20;;;;;;;;;;;8.70;99.90;;;;;;5047976;28;19917;-62
2023/01/09 14:34:47;;;;;;;;;;;8.80;99.90;;;;;;5045663;28;19955;-61
2023/01/09 14:37:13;;;;;;;;;;;8.80;99.90;;;;;;5049943;28;19921;-59
2023/01/09 14:39:41;;;;;;;;;;;8.80;99.90;;;;;;5045039;28;19920;-62
2023/01/09 14:42:14;;;;;;;;;;;8.80;99.90;;;;;;5047540;28;19913;-60
2023/01/09 14:44:51;;;;;;;;;;;8.70;99.90;;;;;;5041217;28;19913;-62
2023/01/09 14:47:20;;;;;;;;;;;8.70;99.90;;;;;;5045596;28;20436;-62
2023/01/09 14:49:48;;;;;;;;;;;8.70;99.90;;;;;;5040432;28;19920;-62
2023/01/09 14:52:22;;;;;;;;;;;8.70;99.90;;;;;;5049552;28;19913;-61